Time;durP1;ratioP1;P1;durP2;ratioP2;P2;SDS_P1;SDS_P2;PMS_P1;PMS_P2;Temp;Humidity;BMP_temperature;BMP_pressure;BME280_temperature;BME280_humidity;BME280_pressure;Samples;Min_cycle;Max_cycle;Signal;HPM_P1;HPM_P2
2023/08/18 00:02:22;;;;;;;7.30;1.70;;;;;;;;;;5054076;28;20177;-76
2023/08/18 00:04:47;;;;;;;9.73;1.90;;;18.90;1.00;;;;;;5053765;28;20252;-76
2023/08/18 00:07:14;;;;;;;11.32;1.88;;;19.00;1.00;;;;;;5053995;28;20264;-75
2023/08/18 00:09:40;;;;;;;7.47;2.00;;;19.00;1.00;;;;;;5054271;28;20181;-74
2023/08/18 00:12:06;;;;;;;6.30;2.03;;;18.90;1.00;;;;;;5054160;28;20165;-75
2023/08/18 00:14:32;;;;;;;5.55;1.70;;;18.90;1.00;;;;;;5053864;28;20672;-76
2023/08/18 00:16:58;;;;;;;5.32;1.52;;;19.00;1.00;;;;;;5053920;28;20277;-76
2023/08/18 00:19:24;;;;;;;7.00;1.95;;;18.90;38.10;;;;;;5052729;28;20652;-74
2023/08/18 00:21:49;;;;;;;6.47;1.90;;;19.00;1.00;;;;;;5053978;28;20551;-74
2023/08/18 00:24:15;;;;;;;7.50;2.05;;;19.10;99.90;;;;;;5053834;28;20173;-75
2023/08/18 00:26:41;;;;;;;7.93;2.35;;;19.00;99.90;;;;;;5053900;28;20291;-76
2023/08/18 00:29:07;;;;;;;6.93;2.20;;;18.90;99.90;;;;;;5051016;28;20710;-75
2023/08/18 00:31:32;;;;;;;9.27;2.72;;;18.80;99.90;;;;;;5053822;28;20288;-75
2023/08/18 00:33:58;;;;;;;7.22;2.05;;;18.70;99.90;;;;;;5053421;28;20188;-76
2023/08/18 00:36:25;;;;;;;12.65;2.45;;;18.70;99.90;;;;;;5036937;28;20683;-76
2023/08/18 00:38:51;;;;;;;12.07;2.78;;;18.80;99.90;;;;;;5033641;28;20216;-76
2023/08/18 00:41:17;;;;;;;7.85;2.42;;;18.80;99.90;;;;;;5033971;28;20181;-76
2023/08/18 00:43:43;;;;;;;7.30;2.50;;;18.80;99.90;;;;;;5048095;28;20261;-75
2023/08/18 00:46:09;;;;;;;11.98;2.60;;;18.70;99.90;;;;;;5035706;28;20269;-76
2023/08/18 00:48:37;;;;;;;9.20;2.40;;;18.70;99.90;;;;;;5047344;28;20173;-75
2023/08/18 00:51:02;;;;;;;9.27;2.63;;;18.80;99.90;;;;;;5044518;28;20181;-75
2023/08/18 00:53:30;;;;;;;9.88;2.95;;;18.70;99.90;;;;;;5041965;28;20185;-75
2023/08/18 00:55:56;;;;;;;7.55;2.40;;;18.80;99.90;;;;;;5043999;28;20379;-75
2023/08/18 00:58:22;;;;;;;14.02;3.53;;;18.60;99.90;;;;;;5033329;28;20293;-76
2023/08/18 01:00:49;;;;;;;9.57;2.95;;;18.70;99.90;;;;;;5038295;28;20421;-75
2023/08/18 01:03:15;;;;;;;10.18;3.25;;;;;;;;;;5053290;28;20179;-74
2023/08/18 01:05:41;;;;;;;9.77;3.28;;;18.70;99.90;;;;;;5052972;28;20172;-74
2023/08/18 01:08:07;;;;;;;11.75;3.28;;;18.70;99.90;;;;;;5052931;28;20170;-77
2023/08/18 01:10:40;;;;;;;11.23;3.75;;;18.60;99.90;;;;;;5053089;28;20560;-77
2023/08/18 01:13:33;;;;;;;10.75;3.28;;;18.90;99.90;;;;;;5046509;28;20174;-77
2023/08/18 01:16:03;;;;;;;10.18;3.28;;;18.70;99.90;;;;;;5032592;28;20209;-75
2023/08/18 01:18:30;;;;;;;7.95;3.28;;;18.70;99.90;;;;;;5032882;28;20696;-77
2023/08/18 01:21:01;;;;;;;7.38;3.40;;;18.50;99.90;;;;;;5031594;28;20200;-76
2023/08/18 01:23:37;;;;;;;12.07;3.97;;;18.60;99.90;;;;;;5032755;28;20165;-77
2023/08/18 01:26:03;;;;;;;9.15;4.00;;;18.70;99.90;;;;;;5032580;28;20209;-76
2023/08/18 01:28:28;;;;;;;12.38;3.50;;;18.70;99.90;;;;;;5032806;28;20633;-76
2023/08/18 01:30:56;;;;;;;12.48;3.55;;;18.60;99.90;;;;;;5032636;28;20182;-77
2023/08/18 01:33:52;;;;;;;14.35;3.70;;;18.90;99.90;;;;;;5032808;28;20182;-76
2023/08/18 01:36:21;;;;;;;10.43;3.67;;;18.70;99.90;;;;;;5032050;28;20214;-76
2023/08/18 01:38:50;;;;;;;13.82;3.75;;;18.80;99.90;;;;;;5032774;28;20646;-76
2023/08/18 01:41:26;;;;;;;10.43;3.75;;;18.70;99.90;;;;;;5032188;28;20178;-76
2023/08/18 01:43:52;;;;;;;7.55;3.90;;;18.70;99.90;;;;;;5032656;28;20170;-76
2023/08/18 01:46:18;;;;;;;11.93;4.07;;;18.90;99.90;;;;;;5032124;28;20679;-76
2023/08/18 01:48:43;;;;;;;11.98;4.07;;;18.80;99.90;;;;;;5031075;28;20193;-76
2023/08/18 01:51:09;;;;;;;11.05;4.03;;;18.80;99.90;;;;;;5032274;28;20530;-76
2023/08/18 01:53:35;;;;;;;9.52;4.20;;;18.80;99.90;;;;;;5032270;28;20194;-76
2023/08/18 01:56:01;;;;;;;11.50;4.35;;;18.80;99.90;;;;;;5032306;28;20208;-75
2023/08/18 01:58:27;;;;;;;9.18;4.60;;;18.80;99.90;;;;;;5032148;28;20166;-76
2023/08/18 02:00:56;;;;;;;10.48;4.53;;;18.50;99.90;;;;;;5044347;28;20205;-76
2023/08/18 02:03:26;;;;;;;9.57;3.92;;;18.80;99.90;;;;;;5037167;28;20390;-76
2023/08/18 02:05:56;;;;;;;11.77;4.10;;;18.80;99.90;;;;;;5032969;28;20665;-77
2023/08/18 02:08:22;;;;;;;13.18;4.88;;;18.70;99.90;;;;;;5044112;28;20185;-76
2023/08/18 02:10:48;;;;;;;15.52;4.70;;;18.60;99.90;;;;;;5031828;28;20664;-76
2023/08/18 02:13:14;;;;;;;14.23;4.25;;;;;;;;;;5042477;28;20256;-76
2023/08/18 02:15:40;;;;;;;13.48;4.68;;;18.70;99.90;;;;;;5051552;28;20293;-76
2023/08/18 02:18:06;;;;;;;11.30;4.30;;;18.80;99.90;;;;;;5051759;28;20201;-77
2023/08/18 02:20:32;;;;;;;10.90;5.20;;;18.70;99.90;;;;;;5051643;28;20225;-76
2023/08/18 02:22:58;;;;;;;15.52;5.50;;;18.80;99.90;;;;;;5050167;28;20188;-76
2023/08/18 02:25:23;;;;;;;11.27;5.03;;;18.60;99.90;;;;;;5041029;28;20178;-76
2023/08/18 02:27:49;;;;;;;12.57;5.28;;;18.60;99.90;;;;;;5031539;28;20711;-77
2023/08/18 02:30:16;;;;;;;16.08;5.63;;;18.60;99.90;;;;;;5031623;28;20667;-77
2023/08/18 02:32:42;;;;;;;12.25;5.40;;;18.60;99.90;;;;;;5031631;28;20236;-77
2023/08/18 02:35:08;;;;;;;11.60;4.95;;;18.70;99.90;;;;;;5031272;28;20672;-76
2023/08/18 02:37:34;;;;;;;16.88;5.90;;;18.50;99.90;;;;;;5031441;28;20743;-76
2023/08/18 02:39:59;;;;;;;18.77;5.88;;;18.70;99.90;;;;;;5030142;28;20170;-77
2023/08/18 02:42:25;;;;;;;11.35;5.20;;;18.70;99.90;;;;;;5031670;28;20232;-77
2023/08/18 02:44:50;;;;;;;13.15;5.28;;;18.80;99.90;;;;;;5043422;28;20181;-77
2023/08/18 02:47:17;;;;;;;15.07;5.10;;;18.70;99.90;;;;;;5034553;28;20596;-75
2023/08/18 02:49:42;;;;;;;12.50;5.53;;;18.70;99.90;;;;;;5032684;28;20636;-77
2023/08/18 02:52:09;;;;;;;13.15;4.95;;;18.80;99.90;;;;;;5038798;28;20233;-77
2023/08/18 02:54:35;;;;;;;13.80;5.57;;;18.80;99.90;;;;;;5042059;28;20335;-79
2023/08/18 02:57:01;;;;;;;13.98;5.68;;;;;;;;;;5038157;28;20251;-79
2023/08/18 02:59:27;;;;;;;18.13;5.50;;;;;;;;;;5041747;28;20170;-80
2023/08/18 03:01:53;;;;;;;14.10;5.57;;;18.80;99.90;;;;;;5043621;28;20173;-79
2023/08/18 03:04:19;;;;;;;16.60;5.43;;;18.70;99.90;;;;;;5042488;28;20281;-77
2023/08/18 03:06:45;;;;;;;11.00;5.25;;;;;;;;;;5042307;28;20188;-78
2023/08/18 03:09:10;;;;;;;9.60;5.20;;;18.80;99.90;;;;;;5038869;28;20185;-77
2023/08/18 03:11:36;;;;;;;12.30;5.03;;;18.80;99.90;;;;;;5050900;28;20248;-78
2023/08/18 03:14:02;;;;;;;10.20;5.22;;;18.80;99.90;;;;;;5045768;28;20585;-77
2023/08/18 03:16:28;;;;;;;10.45;5.45;;;18.80;99.90;;;;;;5037736;28;20236;-78
2023/08/18 03:18:53;;;;;;;14.02;5.60;;;18.80;99.90;;;;;;5040428;28;20208;-78
2023/08/18 03:21:19;;;;;;;20.05;5.95;;;19.10;99.90;;;;;;5034049;28;20716;-77
2023/08/18 03:23:45;;;;;;;9.40;5.13;;;18.90;99.90;;;;;;5031286;28;20170;-78
2023/08/18 03:26:10;;;;;;;13.38;5.35;;;18.90;99.90;;;;;;5029458;28;20224;-78
2023/08/18 03:28:37;;;;;;;11.40;4.75;;;18.90;99.90;;;;;;5032007;28;20300;-78
2023/08/18 03:31:05;;;;;;;10.20;4.68;;;18.90;99.90;;;;;;5041904;28;20235;-76
2023/08/18 03:33:31;;;;;;;11.65;5.30;;;19.80;99.90;;;;;;5034524;28;20204;-77
2023/08/18 03:35:57;;;;;;;10.20;4.90;;;18.70;99.90;;;;;;5042109;28;20233;-76
2023/08/18 03:38:23;;;;;;;12.32;5.15;;;18.90;99.90;;;;;;5040898;28;20169;-77
2023/08/18 03:40:49;;;;;;;11.82;4.63;;;18.90;99.90;;;;;;5035325;28;20264;-76
2023/08/18 03:43:16;;;;;;;9.48;4.93;;;19.00;99.90;;;;;;5030708;28;20170;-76
2023/08/18 03:45:41;;;;;;;13.60;5.07;;;19.00;99.90;;;;;;5046780;28;20177;-76
2023/08/18 03:48:07;;;;;;;10.05;5.20;;;19.00;99.90;;;;;;5030559;28;20296;-76
2023/08/18 03:50:34;;;;;;;9.15;4.97;;;19.00;99.90;;;;;;5040472;28;20216;-76
2023/08/18 03:53:00;;;;;;;11.23;5.25;;;19.00;99.90;;;;;;5033756;28;20621;-76
2023/08/18 03:55:25;;;;;;;13.73;4.80;;;19.00;99.90;;;;;;5033565;28;20209;-76
2023/08/18 03:57:51;;;;;;;10.00;4.80;;;19.00;99.90;;;;;;5050575;28;20590;-76
2023/08/18 04:00:17;;;;;;;11.05;4.82;;;19.10;99.90;;;;;;5050471;28;20644;-76
2023/08/18 04:02:43;;;;;;;11.15;4.88;;;19.00;99.90;;;;;;5050591;28;20217;-76
2023/08/18 04:05:09;;;;;;;11.73;4.68;;;19.10;99.90;;;;;;5053767;28;20173;-76
2023/08/18 04:07:35;;;;;;;8.65;5.20;;;19.10;99.90;;;;;;5050991;28;20166;-76
2023/08/18 04:10:00;;;;;;;7.78;4.85;;;19.00;99.90;;;;;;5034144;28;20264;-76
2023/08/18 04:12:26;;;;;;;14.45;5.07;;;19.10;99.90;;;;;;5050588;28;20184;-76
2023/08/18 04:14:52;;;;;;;14.25;5.40;;;18.90;99.90;;;;;;5053853;28;20236;-76
2023/08/18 04:17:17;;;;;;;9.02;4.97;;;19.00;99.90;;;;;;5053697;28;20169;-78
2023/08/18 04:19:43;;;;;;;14.50;5.88;;;18.90;99.90;;;;;;5053905;28;20559;-76
2023/08/18 04:22:08;;;;;;;13.30;6.10;;;18.90;99.90;;;;;;5053921;28;20187;-76
2023/08/18 04:24:34;;;;;;;14.93;5.68;;;18.80;99.90;;;;;;5052410;28;20173;-74
2023/08/18 04:26:59;;;;;;;13.18;5.85;;;18.80;99.90;;;;;;5053436;28;20723;-74
2023/08/18 04:29:26;;;;;;;12.25;5.82;;;18.40;99.90;;;;;;5053669;28;20166;-74
2023/08/18 04:31:52;;;;;;;11.80;6.07;;;18.60;99.90;;;;;;5052452;28;20169;-74
2023/08/18 04:34:18;;;;;;;12.23;5.90;;;18.70;99.90;;;;;;5053465;28;20268;-73
2023/08/18 04:36:44;;;;;;;11.00;5.88;;;;;;;;;;5053595;28;20723;-74
2023/08/18 04:39:13;;;;;;;12.68;5.80;;;18.60;99.90;;;;;;5053571;28;20168;-75
2023/08/18 04:41:39;;;;;;;12.07;5.90;;;18.50;99.90;;;;;;5052289;28;20177;-75
2023/08/18 04:44:05;;;;;;;10.63;6.47;;;18.50;99.90;;;;;;5053389;28;20180;-75
2023/08/18 04:46:31;;;;;;;12.27;6.13;;;18.50;99.90;;;;;;5053142;28;20252;-75
2023/08/18 04:48:57;;;;;;;13.25;6.30;;;18.50;99.90;;;;;;5053415;28;20222;-75
2023/08/18 04:51:23;;;;;;;13.70;5.60;;;18.50;99.90;;;;;;5053281;28;20636;-74
2023/08/18 04:53:49;;;;;;;12.80;6.82;;;17.50;99.90;;;;;;5047924;28;20173;-74
2023/08/18 04:56:15;;;;;;;12.77;6.63;;;18.60;99.90;;;;;;5042075;28;20220;-75
2023/08/18 04:58:41;;;;;;;11.18;7.00;;;18.70;99.90;;;;;;5034518;28;20182;-75
2023/08/18 05:01:07;;;;;;;14.85;6.68;;;18.50;99.90;;;;;;5044127;28;20663;-75
2023/08/18 05:03:33;;;;;;;10.23;6.20;;;18.50;99.90;;;;;;5040113;28;20295;-76
2023/08/18 05:06:12;;;;;;;11.75;6.15;;;18.60;99.90;;;;;;5040802;28;20178;-74
2023/08/18 05:08:40;;;;;;;13.73;6.43;;;18.60;99.90;;;;;;5041837;28;20181;-74
2023/08/18 05:11:07;;;;;;;10.68;6.50;;;18.60;99.90;;;;;;5043784;28;20182;-75
2023/08/18 05:13:34;;;;;;;12.77;6.82;;;18.50;99.90;;;;;;5049468;28;20173;-74
2023/08/18 05:16:00;;;;;;;14.85;6.80;;;18.70;99.90;;;;;;5048353;28;20233;-74
2023/08/18 05:18:28;;;;;;;12.77;6.88;;;18.60;99.90;;;;;;5032797;28;20228;-75
2023/08/18 05:20:58;;;;;;;18.10;7.20;;;18.60;99.90;;;;;;5032937;28;20186;-75
2023/08/18 05:23:24;;;;;;;17.67;7.82;;;18.60;99.90;;;;;;5032737;28;20197;-74
2023/08/18 05:25:54;;;;;;;10.63;6.28;;;18.60;99.90;;;;;;5032623;28;20174;-74
2023/08/18 05:28:21;;;;;;;11.93;6.18;;;18.70;99.90;;;;;;5037201;28;20275;-77
2023/08/18 05:30:48;;;;;;;14.77;6.38;;;18.70;99.90;;;;;;5052744;28;20169;-76
2023/08/18 05:33:14;;;;;;;15.48;6.78;;;18.80;99.90;;;;;;5052731;28;20196;-74
2023/08/18 05:35:39;;;;;;;15.55;7.15;;;18.70;99.90;;;;;;5052322;28;20683;-75
2023/08/18 05:38:11;;;;;;;11.73;6.90;;;18.70;99.90;;;;;;5052444;28;20197;-77
2023/08/18 05:40:45;;;;;;;9.07;6.80;;;18.70;99.90;;;;;;5051248;28;20689;-75
2023/08/18 05:43:12;;;;;;;12.60;6.75;;;18.60;99.90;;;;;;5052278;28;20172;-77
2023/08/18 05:45:38;;;;;;;15.15;7.22;;;18.50;99.90;;;;;;5050730;28;20508;-77
2023/08/18 05:48:04;;;;;;;12.18;6.63;;;18.70;99.90;;;;;;5050991;28;20180;-75
2023/08/18 05:50:31;;;;;;;10.50;6.30;;;18.60;99.90;;;;;;5050788;28;20169;-76
2023/08/18 05:52:57;;;;;;;17.75;7.07;;;18.70;99.90;;;;;;5052278;28;20173;-75
2023/08/18 05:55:23;;;;;;;12.95;6.72;;;18.70;99.90;;;;;;5052040;28;20224;-75
2023/08/18 05:57:50;;;;;;;11.82;6.60;;;18.70;99.90;;;;;;5052329;28;20170;-76
2023/08/18 06:00:16;;;;;;;14.43;7.18;;;18.70;99.90;;;;;;5052039;28;20252;-76
2023/08/18 06:02:44;;;;;;;14.82;7.30;;;18.70;99.90;;;;;;5051952;28;20260;-76
2023/08/18 06:05:10;;;;;;;10.70;6.63;;;18.70;99.90;;;;;;5043203;28;20174;-76
2023/08/18 06:07:36;;;;;;;12.85;6.68;;;18.70;99.90;;;;;;5031910;28;20189;-76
2023/08/18 06:10:03;;;;;;;16.35;7.68;;;18.70;99.90;;;;;;5030620;28;20178;-76
2023/08/18 06:12:29;;;;;;;18.10;7.65;;;18.70;99.90;;;;;;5031817;28;20228;-76
2023/08/18 06:14:54;;;;;;;13.02;7.07;;;18.50;99.90;;;;;;5031697;28;20205;-77
2023/08/18 06:17:20;;;;;;;11.68;7.35;;;18.70;99.90;;;;;;5030807;28;20276;-77
2023/08/18 06:19:46;;;;;;;12.68;6.88;;;18.70;99.90;;;;;;5030775;28;20687;-76
2023/08/18 06:22:11;;;;;;;16.10;7.28;;;18.70;99.90;;;;;;5031693;28;20640;-76
2023/08/18 06:24:37;;;;;;;16.33;7.40;;;18.70;99.90;;;;;;5031565;28;20579;-76
2023/08/18 06:27:02;;;;;;;14.10;7.70;;;18.70;99.90;;;;;;5031486;28;20645;-76
2023/08/18 06:29:28;;;;;;;13.68;7.55;;;18.60;99.90;;;;;;5031537;28;20727;-74
2023/08/18 06:31:54;;;;;;;17.05;7.75;;;;;;;;;;5031704;28;20177;-73
2023/08/18 06:34:19;;;;;;;16.98;7.30;;;18.60;99.90;;;;;;5031167;28;20205;-73
2023/08/18 06:36:45;;;;;;;14.40;7.60;;;18.70;99.90;;;;;;5031484;28;20272;-73
2023/08/18 06:39:11;;;;;;;14.95;7.65;;;18.70;99.90;;;;;;5031335;28;20181;-75
2023/08/18 06:41:42;;;;;;;14.98;7.75;;;18.80;99.90;;;;;;5043337;28;20661;-74
2023/08/18 06:44:08;;;;;;;14.23;7.45;;;18.70;99.90;;;;;;5036294;28;20308;-73
2023/08/18 06:46:34;;;;;;;13.80;7.43;;;18.60;99.90;;;;;;5050517;28;20652;-73
2023/08/18 06:49:01;;;;;;;13.27;6.95;;;18.60;99.90;;;;;;5050763;28;20180;-75
2023/08/18 06:51:27;;;;;;;13.23;6.85;;;18.60;99.90;;;;;;5046186;28;20174;-73
2023/08/18 06:53:53;;;;;;;12.85;6.75;;;18.70;99.90;;;;;;5036164;28;20204;-73
2023/08/18 06:56:18;;;;;;;13.45;7.32;;;18.70;99.90;;;;;;5037365;28;20276;-73
2023/08/18 06:58:44;;;;;;;11.75;6.68;;;18.60;99.90;;;;;;5031042;28;20181;-73
2023/08/18 07:01:10;;;;;;;12.02;7.53;;;18.70;99.90;;;;;;5049368;28;20176;-73
2023/08/18 07:03:35;;;;;;;10.02;7.15;;;18.70;99.90;;;;;;5050699;28;20252;-73
2023/08/18 07:06:01;;;;;;;13.23;7.03;;;18.70;99.90;;;;;;5050855;28;20584;-73
2023/08/18 07:08:26;;;;;;;16.25;6.88;;;18.70;99.90;;;;;;5050450;28;20178;-73
2023/08/18 07:10:52;;;;;;;12.07;6.80;;;18.60;99.90;;;;;;5049168;28;20509;-74
2023/08/18 07:13:20;;;;;;;14.10;6.95;;;;;;;;;;5049547;28;20650;-74
2023/08/18 07:15:45;;;;;;;10.88;6.63;;;18.60;99.90;;;;;;5044683;28;20232;-73
2023/08/18 07:18:11;;;;;;;12.38;6.30;;;18.60;99.90;;;;;;5037468;28;20264;-73
2023/08/18 07:20:37;;;;;;;11.63;7.18;;;18.70;99.90;;;;;;5030881;28;20662;-74
2023/08/18 07:23:03;;;;;;;9.85;6.55;;;18.70;99.90;;;;;;5040911;28;20169;-74
2023/08/18 07:25:29;;;;;;;11.57;6.88;;;18.70;99.90;;;;;;5049125;28;20176;-73
2023/08/18 07:27:55;;;;;;;10.75;6.70;;;18.70;99.90;;;;;;5036519;28;20222;-74
2023/08/18 07:30:21;;;;;;;10.10;6.68;;;18.70;99.90;;;;;;5032823;28;20174;-74
2023/08/18 07:32:47;;;;;;;13.35;6.80;;;18.80;99.90;;;;;;5049359;28;20192;-73
2023/08/18 07:35:14;;;;;;;12.95;7.10;;;18.70;99.90;;;;;;5059429;28;20690;-73
2023/08/18 07:37:40;;;;;;;12.23;6.85;;;18.70;99.90;;;;;;5053733;28;20176;-74
2023/08/18 07:40:09;;;;;;;10.65;6.72;;;18.70;99.90;;;;;;5053214;28;20181;-73
2023/08/18 07:42:35;;;;;;;12.25;7.65;;;18.80;99.90;;;;;;5052802;28;20239;-73
2023/08/18 07:45:02;;;;;;;10.75;6.68;;;18.80;99.90;;;;;;5042678;28;20196;-74
2023/08/18 07:47:28;;;;;;;12.70;7.28;;;18.80;99.90;;;;;;5045554;28;20232;-74
2023/08/18 07:49:53;;;;;;;12.73;7.25;;;18.70;99.90;;;;;;5034327;28;21036;-73
2023/08/18 07:52:19;;;;;;;12.02;6.70;;;18.80;99.90;;;;;;5045404;28;20248;-73
2023/08/18 07:54:44;;;;;;;17.15;8.07;;;18.80;99.90;;;;;;5054056;28;20241;-73
2023/08/18 07:57:10;;;;;;;13.63;7.63;;;18.80;99.90;;;;;;5051453;28;20554;-74
2023/08/18 07:59:35;;;;;;;13.57;8.50;;;18.90;99.90;;;;;;5053449;28;20242;-74
2023/08/18 08:02:02;;;;;;;11.23;7.63;;;18.80;99.90;;;;;;5049373;28;20174;-75
2023/08/18 08:04:28;;;;;;;13.52;7.25;;;18.80;99.90;;;;;;5034754;28;20711;-73
2023/08/18 08:06:56;;;;;;;8.75;6.95;;;18.80;99.90;;;;;;5034105;28;20171;-73
2023/08/18 08:09:25;;;;;;;9.95;7.40;;;18.80;99.90;;;;;;5034427;28;20228;-73
2023/08/18 08:11:52;;;;;;;11.05;7.22;;;18.80;99.90;;;;;;5034036;28;20201;-73
2023/08/18 08:14:19;;;;;;;11.38;7.10;;;18.80;99.90;;;;;;5043150;28;20541;-74
2023/08/18 08:16:45;;;;;;;10.35;7.68;;;18.80;99.90;;;;;;5052044;28;20181;-74
2023/08/18 08:19:12;;;;;;;12.85;8.35;;;18.80;99.90;;;;;;5035139;28;20170;-73
2023/08/18 08:21:38;;;;;;;12.75;7.95;;;18.80;99.90;;;;;;5033840;28;20189;-72
2023/08/18 08:24:05;;;;;;;14.00;8.15;;;18.80;99.90;;;;;;5034956;28;20173;-74
2023/08/18 08:26:30;;;;;;;12.18;7.50;;;18.80;99.90;;;;;;5033630;28;20688;-74
2023/08/18 08:28:56;;;;;;;9.48;6.95;;;18.80;99.90;;;;;;5033860;28;20174;-75
2023/08/18 08:31:22;;;;;;;13.35;8.13;;;18.80;99.90;;;;;;5033747;28;20676;-73
2023/08/18 08:33:47;;;;;;;14.05;8.55;;;18.90;99.90;;;;;;5034420;28;20261;-76
2023/08/18 08:36:13;;;;;;;12.80;8.02;;;18.80;99.90;;;;;;5048871;28;20208;-73
2023/08/18 08:38:39;;;;;;;16.45;8.38;;;18.90;99.90;;;;;;5045553;28;20235;-74
2023/08/18 08:41:04;;;;;;;11.38;7.75;;;18.90;99.90;;;;;;5036402;28;20186;-78
2023/08/18 08:43:30;;;;;;;13.40;8.68;;;18.90;99.90;;;;;;5033210;28;20177;-77
2023/08/18 08:45:58;;;;;;;11.98;8.35;;;18.90;99.90;;;;;;5031902;28;20213;-77
2023/08/18 08:48:40;;;;;;;12.75;8.55;;;18.90;99.90;;;;;;5033152;28;20193;-77
2023/08/18 08:51:10;;;;;;;17.75;8.55;;;18.90;99.90;;;;;;5039999;28;20165;-79
2023/08/18 08:53:39;;;;;;;13.73;8.77;;;18.90;99.90;;;;;;5053672;28;20173;-74
2023/08/18 08:56:07;;;;;;;14.45;9.38;;;18.90;99.90;;;;;;5051243;28;20290;-74
2023/08/18 08:58:34;;;;;;;13.00;8.68;;;18.80;99.90;;;;;;5042008;28;20184;-76
2023/08/18 09:01:06;;;;;;;10.45;8.20;;;18.80;99.90;;;;;;5033066;28;20182;-77
2023/08/18 09:03:33;;;;;;;12.48;8.27;;;18.80;99.90;;;;;;5032773;28;20178;-76
2023/08/18 09:05:58;;;;;;;13.07;8.68;;;18.80;99.90;;;;;;5040893;28;20256;-78
2023/08/18 09:08:24;;;;;;;15.10;8.43;;;18.80;99.90;;;;;;5053023;28;20248;-77
2023/08/18 09:10:51;;;;;;;14.35;8.35;;;19.10;99.90;;;;;;5033583;28;20173;-75
2023/08/18 09:13:16;;;;;;;14.15;8.48;;;18.60;99.90;;;;;;5032774;28;20184;-77
2023/08/18 09:15:44;;;;;;;14.07;7.97;;;18.90;99.90;;;;;;5032374;28;20568;-74
2023/08/18 09:18:16;;;;;;;14.05;9.10;;;18.90;99.90;;;;;;5033916;28;20608;-74
2023/08/18 09:20:45;;;;;;;13.23;9.32;;;19.00;99.90;;;;;;5037878;28;20300;-73
2023/08/18 09:23:11;;;;;;;13.13;8.80;;;19.00;99.90;;;;;;5043349;28;20167;-76
2023/08/18 09:25:37;;;;;;;13.20;9.02;;;19.10;99.90;;;;;;5031604;28;20174;-78
2023/08/18 09:28:04;;;;;;;19.30;8.75;;;19.00;99.90;;;;;;5032530;28;20222;-76
2023/08/18 09:30:31;;;;;;;13.30;9.15;;;18.90;99.90;;;;;;5032610;28;20249;-78
2023/08/18 09:33:00;;;;;;;14.23;9.52;;;18.90;99.90;;;;;;5032688;28;20177;-77
2023/08/18 09:35:25;;;;;;;15.55;9.18;;;18.90;99.90;;;;;;5032348;28;20908;-77
2023/08/18 09:37:58;;;;;;;15.98;10.07;;;18.90;99.90;;;;;;5032533;28;20300;-77
2023/08/18 09:40:24;;;;;;;13.60;9.75;;;18.90;99.90;;;;;;5032442;28;20170;-77
2023/08/18 09:42:50;;;;;;;13.65;9.52;;;18.80;99.90;;;;;;5032234;28;20201;-77
2023/08/18 09:45:16;;;;;;;14.48;9.60;;;18.70;99.90;;;;;;5040017;28;20205;-77
2023/08/18 09:47:45;;;;;;;15.25;10.20;;;18.80;99.90;;;;;;5043154;28;20200;-78
2023/08/18 09:50:11;;;;;;;17.88;10.07;;;18.80;99.90;;;;;;5042151;28;20176;-78
2023/08/18 09:52:38;;;;;;;16.63;10.15;;;18.80;99.90;;;;;;5035018;28;20192;-76
2023/08/18 09:55:12;;;;;;;14.95;9.35;;;18.80;99.90;;;;;;5040099;28;20200;-79
2023/08/18 09:57:49;;;;;;;15.15;9.18;;;18.90;99.90;;;;;;5041971;28;20179;-80
2023/08/18 10:00:17;;;;;;;12.77;9.10;;;18.90;99.90;;;;;;5044115;28;20278;-79
2023/08/18 10:02:44;;;;;;;14.65;9.35;;;18.90;99.90;;;;;;5051165;28;20234;-75
2023/08/18 10:05:12;;;;;;;13.23;10.05;;;18.90;99.90;;;;;;5050454;28;20252;-74
2023/08/18 10:07:39;;;;;;;13.35;9.43;;;18.90;99.90;;;;;;5034147;28;20188;-79
2023/08/18 10:10:06;;;;;;;12.52;9.73;;;18.90;99.90;;;;;;5052053;28;20188;-76
2023/08/18 10:12:32;;;;;;;13.25;9.73;;;18.80;99.90;;;;;;5051950;28;20176;-77
2023/08/18 10:14:59;;;;;;;12.95;10.30;;;18.90;99.90;;;;;;5044427;28;20205;-76
2023/08/18 10:17:25;;;;;;;14.63;9.90;;;19.00;99.90;;;;;;5039212;28;20169;-77
2023/08/18 10:19:55;;;;;;;14.00;10.32;;;19.00;99.90;;;;;;5042826;28;20165;-76
2023/08/18 10:22:25;;;;;;;13.52;9.98;;;19.00;99.90;;;;;;5041706;28;20263;-79
2023/08/18 10:24:52;;;;;;;13.65;10.32;;;19.10;99.90;;;;;;5041469;28;20271;-77
2023/08/18 10:27:27;;;;;;;14.23;10.25;;;19.00;99.90;;;;;;5040821;28;20221;-74
2023/08/18 10:29:59;;;;;;;15.18;10.18;;;19.10;99.90;;;;;;5049921;28;20173;-74
2023/08/18 10:32:25;;;;;;;13.93;10.60;;;19.10;99.90;;;;;;5039283;28;20220;-74
2023/08/18 10:34:51;;;;;;;13.20;10.30;;;19.30;99.90;;;;;;5036948;28;20742;-80
2023/08/18 10:37:20;;;;;;;16.70;11.35;;;19.20;99.90;;;;;;5036494;28;20214;-77
2023/08/18 10:39:48;;;;;;;15.80;11.90;;;19.30;99.90;;;;;;5051761;28;20165;-78
2023/08/18 10:42:15;;;;;;;13.65;10.73;;;19.20;99.90;;;;;;5046550;28;20244;-79
2023/08/18 10:45:00;;;;;;;15.18;11.07;;;19.40;99.90;;;;;;5031546;28;20208;-78
2023/08/18 10:47:31;;;;;;;16.33;11.27;;;19.50;99.90;;;;;;5034045;28;20162;-78
2023/08/18 10:49:59;;;;;;;15.15;11.50;;;19.60;99.90;;;;;;5051684;28;20169;-79
2023/08/18 10:52:29;;;;;;;17.52;12.52;;;19.60;99.90;;;;;;5049591;28;20177;-76
2023/08/18 10:54:55;;;;;;;16.02;11.57;;;19.70;99.90;;;;;;5047039;28;20681;-78
2023/08/18 10:57:21;;;;;;;17.52;12.45;;;19.60;99.90;;;;;;5031904;28;20224;-79
2023/08/18 10:59:46;;;;;;;19.00;12.18;;;19.60;99.90;;;;;;5031664;28;20170;-77
2023/08/18 11:02:13;;;;;;;20.02;12.02;;;19.60;99.90;;;;;;5031392;28;20166;-78
2023/08/18 11:04:39;;;;;;;14.77;11.95;;;19.80;99.90;;;;;;5031256;28;20162;-78
2023/08/18 11:07:05;;;;;;;16.45;11.45;;;19.70;99.90;;;;;;5031343;28;20177;-78
2023/08/18 11:09:31;;;;;;;17.52;12.25;;;19.80;99.90;;;;;;5037667;28;20533;-78
2023/08/18 11:11:57;;;;;;;18.98;13.00;;;19.80;99.90;;;;;;5049214;28;20176;-78
2023/08/18 11:14:22;;;;;;;18.40;12.85;;;19.60;99.90;;;;;;5048356;28;20165;-77
2023/08/18 11:16:48;;;;;;;17.58;12.82;;;;;;;;;;5049071;28;20611;-76
2023/08/18 11:19:17;;;;;;;16.65;12.18;;;19.70;99.90;;;;;;5047693;28;20652;-77
2023/08/18 11:21:42;;;;;;;21.23;12.48;;;19.80;99.90;;;;;;5048966;28;20204;-76
2023/08/18 11:24:08;;;;;;;18.25;12.75;;;19.70;99.90;;;;;;5049952;28;20550;-77
2023/08/18 11:26:39;;;;;;;20.23;13.32;;;19.70;99.90;;;;;;5049504;28;20629;-77
2023/08/18 11:29:06;;;;;;;16.85;12.00;;;19.60;99.90;;;;;;5050766;28;20169;-77
2023/08/18 11:31:31;;;;;;;18.42;11.90;;;19.60;99.90;;;;;;5050891;28;20161;-77
2023/08/18 11:33:58;;;;;;;18.27;12.32;;;19.80;99.90;;;;;;5050654;28;20268;-77
2023/08/18 11:36:31;;;;;;;19.40;12.60;;;19.90;99.90;;;;;;5049155;28;20245;-77
2023/08/18 11:39:06;;;;;;;18.58;12.20;;;19.80;99.90;;;;;;5049842;28;20552;-77
2023/08/18 11:41:52;;;;;;;16.85;12.05;;;19.80;99.90;;;;;;5049706;28;20275;-78
2023/08/18 11:44:20;;;;;;;15.52;11.05;;;19.70;99.90;;;;;;5050874;28;20165;-76
2023/08/18 11:46:45;;;;;;;18.35;11.45;;;19.70;99.90;;;;;;5048820;28;20175;-76
2023/08/18 11:49:12;;;;;;;18.38;12.07;;;19.70;99.90;;;;;;5050696;28;20174;-75
2023/08/18 11:51:54;;;;;;;16.83;11.02;;;19.80;99.90;;;;;;5051064;28;20259;-77
2023/08/18 11:54:20;;;;;;;16.27;11.13;;;19.80;99.90;;;;;;5051447;28;20165;-76
2023/08/18 11:56:46;;;;;;;20.17;11.23;;;;;;;;;;5049653;28;20235;-76
2023/08/18 11:59:20;;;;;;;14.63;11.27;;;19.90;99.90;;;;;;5051061;28;20214;-76
2023/08/18 12:01:45;;;;;;;16.98;11.63;;;19.90;99.90;;;;;;5051465;28;20632;-76
2023/08/18 12:04:11;;;;;;;16.80;11.82;;;19.90;99.90;;;;;;5053574;28;20173;-76
2023/08/18 12:06:37;;;;;;;16.00;10.75;;;20.00;99.90;;;;;;5053034;28;20264;-77
2023/08/18 12:09:05;;;;;;;15.43;11.00;;;20.00;99.90;;;;;;5052710;28;20342;-77
2023/08/18 12:11:34;;;;;;;15.85;11.15;;;19.90;99.90;;;;;;5053809;28;20174;-77
2023/08/18 12:14:00;;;;;;;14.77;10.85;;;20.00;99.90;;;;;;5036097;28;20174;-79
2023/08/18 12:16:26;;;;;;;15.73;10.60;;;20.10;99.90;;;;;;5030504;28;20719;-77
2023/08/18 12:18:51;;;;;;;19.08;11.25;;;20.10;99.90;;;;;;5032058;28;20653;-78
2023/08/18 12:21:17;;;;;;;15.25;10.57;;;20.00;99.90;;;;;;5031682;28;20712;-76
2023/08/18 12:23:42;;;;;;;15.93;11.13;;;20.10;99.90;;;;;;5036687;28;20184;-76
2023/08/18 12:26:08;;;;;;;16.38;11.55;;;20.20;99.90;;;;;;5055523;28;20227;-75
2023/08/18 12:28:34;;;;;;;20.45;12.07;;;20.30;99.90;;;;;;5041126;28;20256;-73
2023/08/18 12:31:00;;;;;;;18.92;12.55;;;20.20;99.90;;;;;;5034237;28;20197;-74
2023/08/18 12:33:26;;;;;;;17.70;12.73;;;20.30;99.90;;;;;;5047359;28;20177;-74
2023/08/18 12:35:52;;;;;;;20.00;12.45;;;20.30;99.90;;;;;;5057536;28;20221;-77
2023/08/18 12:38:17;;;;;;;19.38;13.43;;;20.40;99.90;;;;;;5033790;28;20177;-75
2023/08/18 12:40:43;;;;;;;19.92;13.48;;;20.30;99.90;;;;;;5039257;28;20181;-77